Time;durP1;ratioP1;P1;durP2;ratioP2;P2;SDS_P1;SDS_P2;PMS_P1;PMS_P2;Temp;Humidity;BMP_temperature;BMP_pressure;BME280_temperature;BME280_humidity;BME280_pressure;Samples;Min_cycle;Max_cycle;Signal;HPM_P1;HPM_P2
2023/11/20 00:01:24;;;;;;;16.43;2.03;;;;;;;14.06;53.22;97302.41;5049271;28;20762;-70
2023/11/20 00:03:50;;;;;;;13.90;2.53;;;;;;;14.01;53.08;97299.47;5053339;28;20707;-70
2023/11/20 00:06:16;;;;;;;8.70;2.50;;;;;;;14.00;53.07;97297.81;5048921;28;20191;-71
2023/11/20 00:08:42;;;;;;;15.47;2.83;;;;;;;13.87;53.41;97309.72;5052891;28;20218;-70
2023/11/20 00:11:07;;;;;;;7.70;2.23;;;;;;;13.87;53.50;97315.00;5052370;28;20526;-70
2023/11/20 00:13:32;;;;;;;9.53;2.23;;;;;;;13.82;53.29;97306.78;5049379;28;20277;-70
2023/11/20 00:15:58;;;;;;;15.63;2.67;;;;;;;13.93;53.55;97305.56;5047042;28;20668;-70
2023/11/20 00:18:23;;;;;;;18.87;2.50;;;;;;;13.93;53.31;97311.69;5055046;28;20195;-72
2023/11/20 00:20:49;;;;;;;12.13;2.80;;;;;;;13.92;53.18;97307.41;5050942;28;20361;-70
2023/11/20 00:23:14;;;;;;;11.90;2.20;;;;;;;13.96;53.22;97298.19;5034219;28;20219;-70
2023/11/20 00:25:40;;;;;;;14.93;2.80;;;;;;;13.85;53.19;97311.72;5048797;28;20195;-70
2023/11/20 00:28:05;;;;;;;9.13;1.93;;;;;;;13.92;53.21;97302.13;5048478;28;20203;-70
2023/11/20 00:30:31;;;;;;;12.50;2.10;;;;;;;14.02;53.16;97306.38;5048640;28;20246;-70
2023/11/20 00:32:56;;;;;;;10.40;2.20;;;;;;;14.03;53.07;97306.22;5050119;28;20298;-70
2023/11/20 00:35:22;;;;;;;9.77;2.03;;;;;;;14.07;53.04;97312.78;5048361;28;20199;-70
2023/11/20 00:37:47;;;;;;;9.10;2.10;;;;;;;14.10;52.97;97320.34;5048362;28;20284;-69
2023/11/20 00:40:13;;;;;;;11.67;2.50;;;;;;;14.09;52.85;97328.44;5045490;28;20261;-71
2023/11/20 00:42:38;;;;;;;9.00;2.00;;;;;;;14.09;53.05;97326.59;5051773;28;20316;-70
2023/11/20 00:45:04;;;;;;;9.20;1.97;;;;;;;14.05;52.75;97327.94;5052009;28;20274;-70
2023/11/20 00:47:29;;;;;;;13.53;2.50;;;;;;;14.09;52.85;97318.69;5049911;28;20183;-70
2023/11/20 00:49:55;;;;;;;14.80;2.77;;;;;;;14.08;52.77;97316.25;5052445;28;20365;-70
2023/11/20 00:52:20;;;;;;;13.70;2.47;;;;;;;14.08;52.63;97324.94;5049064;28;20187;-70
2023/11/20 00:54:46;;;;;;;10.73;2.17;;;;;;;14.10;52.78;97325.59;5055723;28;20485;-70
2023/11/20 00:57:11;;;;;;;15.60;2.70;;;;;;;14.13;52.48;97324.44;5048044;28;20208;-70
2023/11/20 00:59:37;;;;;;;11.40;2.13;;;;;;;14.15;52.80;97322.47;5050788;28;20254;-70
2023/11/20 01:02:02;;;;;;;13.20;2.70;;;;;;;14.19;52.65;97323.75;5045734;28;20779;-71
2023/11/20 01:04:28;;;;;;;7.10;1.50;;;;;;;14.18;52.63;97322.13;5049201;28;20194;-71
2023/11/20 01:06:53;;;;;;;16.97;2.60;;;;;;;14.18;52.38;97332.66;5054326;28;20724;-70
2023/11/20 01:09:19;;;;;;;10.47;2.17;;;;;;;14.16;52.66;97328.56;5049183;28;20238;-69
2023/11/20 01:11:44;;;;;;;17.83;2.83;;;;;;;14.16;52.61;97324.09;5048413;28;20194;-69
2023/11/20 01:14:12;;;;;;;11.30;2.27;;;;;;;14.14;52.79;97320.81;5047700;28;20810;-70
2023/11/20 01:16:37;;;;;;;13.50;2.50;;;;;;;14.13;52.85;97325.28;5039962;28;20226;-70
2023/11/20 01:19:03;;;;;;;14.13;3.00;;;;;;;14.09;52.76;97331.88;5044190;28;20869;-69
2023/11/20 01:21:28;;;;;;;16.50;2.80;;;;;;;14.06;52.79;97328.75;5057354;28;20186;-71
2023/11/20 01:23:54;;;;;;;15.63;2.80;;;;;;;14.02;53.22;97341.47;5048064;28;20657;-71
2023/11/20 01:26:20;;;;;;;10.30;2.47;;;;;;;14.06;52.99;97334.03;5048856;28;20293;-72
2023/11/20 01:28:46;;;;;;;6.70;1.87;;;;;;;14.05;53.18;97329.75;5046579;28;21055;-72
2023/11/20 01:31:12;;;;;;;13.60;2.20;;;;;;;14.01;53.28;97328.44;5048948;28;20211;-70
2023/11/20 01:33:37;;;;;;;13.40;2.40;;;;;;;14.00;53.27;97335.53;5047932;28;20433;-71
2023/11/20 01:36:03;;;;;;;11.10;2.40;;;;;;;14.02;53.31;97325.66;5062239;28;20302;-71
2023/11/20 01:38:28;;;;;;;12.00;2.50;;;;;;;14.01;53.24;97323.16;5037225;28;20664;-71
2023/11/20 01:40:54;;;;;;;9.33;1.93;;;;;;;13.95;53.43;97325.50;5047849;28;20211;-70
2023/11/20 01:43:20;;;;;;;12.90;2.23;;;;;;;14.02;53.53;97338.00;5047234;28;20268;-71
2023/11/20 01:45:46;;;;;;;7.73;2.27;;;;;;;14.02;53.45;97332.72;5047340;28;20457;-71
2023/11/20 01:48:12;;;;;;;13.20;2.53;;;;;;;13.99;53.58;97331.25;5046656;28;20232;-70
2023/11/20 01:50:37;;;;;;;14.23;2.50;;;;;;;14.01;53.70;97320.53;5046908;28;20454;-69
2023/11/20 01:53:04;;;;;;;11.50;1.80;;;;;;;14.04;53.58;97325.47;5052795;28;20607;-70
2023/11/20 01:55:31;;;;;;;15.30;2.30;;;;;;;14.06;53.70;97319.03;5045395;28;20183;-69
2023/11/20 01:57:57;;;;;;;9.73;2.07;;;;;;;14.07;53.77;97319.88;5047290;28;20449;-70
2023/11/20 02:00:22;;;;;;;15.27;2.20;;;;;;;14.02;54.17;97319.53;5042430;28;20804;-69
2023/11/20 02:02:48;;;;;;;9.60;2.00;;;;;;;14.09;54.29;97323.97;5050845;28;20250;-71
2023/11/20 02:05:14;;;;;;;17.13;2.17;;;;;;;14.09;54.31;97316.06;5055638;28;20221;-71
2023/11/20 02:07:40;;;;;;;12.13;2.20;;;;;;;14.11;54.38;97305.38;5046590;28;20467;-71
2023/11/20 02:10:07;;;;;;;11.37;2.27;;;;;;;14.08;54.87;97310.97;5051103;28;20455;-71
2023/11/20 02:12:33;;;;;;;11.23;2.00;;;;;;;14.06;55.34;97297.94;5055547;28;20450;-70
2023/11/20 02:14:59;;;;;;;9.70;2.00;;;;;;;14.13;55.11;97306.81;5051952;28;20798;-71
2023/11/20 02:17:24;;;;;;;9.50;2.37;;;;;;;14.06;55.55;97302.41;5051766;28;20478;-73
2023/11/20 02:19:50;;;;;;;8.20;2.10;;;;;;;14.02;55.86;97296.66;5059601;28;20637;-71
2023/11/20 02:22:16;;;;;;;7.90;2.13;;;;;;;14.08;56.22;97303.06;5055990;28;20251;-70
2023/11/20 02:24:43;;;;;;;7.83;1.90;;;;;;;14.03;56.27;97302.75;5042241;28;20190;-72
2023/11/20 02:27:25;;;;;;;9.30;1.83;;;;;;;14.06;56.49;97299.78;5043980;28;20794;-71
2023/11/20 02:29:52;;;;;;;15.80;2.70;;;;;;;14.09;56.49;97296.81;5054756;28;20454;-70
2023/11/20 02:32:18;;;;;;;14.30;1.93;;;;;;;14.05;56.65;97298.94;5055484;28;20444;-71
2023/11/20 02:34:43;;;;;;;11.97;2.73;;;;;;;14.01;57.00;97302.09;5058735;28;20438;-71
2023/11/20 02:37:10;;;;;;;7.17;2.00;;;;;;;14.03;56.98;97294.84;5054816;28;20198;-71
2023/11/20 02:39:37;;;;;;;8.80;2.00;;;;;;;13.98;56.97;97301.47;5054520;28;20218;-72
2023/11/20 02:42:03;;;;;;;8.33;2.10;;;;;;;14.02;56.95;97295.84;5044671;28;20469;-71
2023/11/20 02:44:28;;;;;;;7.73;1.93;;;;;;;13.96;57.34;97292.91;5051386;28;20487;-72
2023/11/20 02:46:54;;;;;;;6.23;1.80;;;;;;;14.04;57.20;97291.22;5058288;28;20190;-69
2023/11/20 02:49:19;;;;;;;10.60;1.80;;;;;;;14.08;57.35;97289.88;5049245;28;20239;-71
2023/11/20 02:51:45;;;;;;;8.20;1.73;;;;;;;14.09;57.14;97297.63;5055362;28;20201;-70
2023/11/20 02:54:11;;;;;;;11.10;2.00;;;;;;;14.09;57.10;97302.06;5051173;28;20283;-70
2023/11/20 02:56:39;;;;;;;9.47;2.00;;;;;;;14.09;57.20;97294.16;5041177;28;20542;-70
2023/11/20 02:59:05;;;;;;;10.77;2.70;;;;;;;14.14;56.96;97297.09;5056209;28;20199;-71
2023/11/20 03:01:31;;;;;;;8.23;1.93;;;;;;;14.14;56.95;97294.47;5057627;28;20456;-70
2023/11/20 03:03:56;;;;;;;11.73;2.53;;;;;;;14.11;56.87;97286.91;5055507;28;20648;-70
2023/11/20 03:06:22;;;;;;;12.23;2.57;;;;;;;14.11;56.89;97282.44;5047249;28;20433;-70
2023/11/20 03:08:47;;;;;;;9.20;2.03;;;;;;;14.17;56.65;97288.84;5049906;28;20191;-71
2023/11/20 03:11:13;;;;;;;11.83;2.03;;;;;;;14.12;56.83;97280.63;5056819;28;20211;-72
2023/11/20 03:13:39;;;;;;;6.27;1.90;;;;;;;14.15;56.42;97285.56;5047258;28;20274;-71
2023/11/20 03:16:05;;;;;;;9.50;1.60;;;;;;;14.19;56.19;97281.59;5063384;28;20214;-69
2023/11/20 03:18:31;;;;;;;8.60;2.00;;;;;;;14.19;55.99;97281.59;5045103;28;20430;-69
2023/11/20 03:20:56;;;;;;;9.03;2.00;;;;;;;14.23;56.08;97288.16;5047795;28;20498;-69
2023/11/20 03:23:22;;;;;;;11.23;1.87;;;;;;;14.26;55.99;97287.00;5050059;28;20454;-70
2023/11/20 03:25:47;;;;;;;7.90;1.90;;;;;;;14.26;56.10;97287.78;5049028;28;20237;-69
2023/11/20 03:28:15;;;;;;;5.37;1.77;;;;;;;14.25;55.91;97280.88;5045888;28;20690;-69
2023/11/20 03:30:40;;;;;;;7.90;1.97;;;;;;;14.20;55.74;97287.66;5057051;28;20235;-69
2023/11/20 03:33:06;;;;;;;12.57;2.00;;;;;;;14.23;55.66;97280.25;5045478;28;20915;-72
2023/11/20 03:35:32;;;;;;;13.00;1.73;;;;;;;14.24;55.44;97273.97;5049101;28;20787;-71
2023/11/20 03:37:57;;;;;;;7.80;2.00;;;;;;;14.20;55.58;97267.41;5042807;28;20528;-69
2023/11/20 03:40:23;;;;;;;8.00;1.60;;;;;;;14.18;55.59;97273.84;5050147;28;20235;-71
2023/11/20 03:42:48;;;;;;;4.00;1.30;;;;;;;14.17;55.64;97272.22;5051402;28;20241;-70
2023/11/20 03:45:13;;;;;;;8.87;1.90;;;;;;;14.15;55.26;97264.47;5054038;28;20233;-70
2023/11/20 03:47:39;;;;;;;9.33;2.00;;;;;;;14.17;55.00;97274.84;5059054;28;20245;-72
2023/11/20 03:50:05;;;;;;;5.17;1.63;;;;;;;14.21;55.24;97260.31;5048598;28;20208;-68
2023/11/20 03:52:30;;;;;;;7.27;2.00;;;;;;;14.26;55.14;97252.72;5046120;28;20194;-70
2023/11/20 03:54:56;;;;;;;7.63;1.87;;;;;;;14.28;54.88;97259.44;5043771;28;20433;-69
2023/11/20 03:57:21;;;;;;;10.60;2.07;;;;;;;14.31;54.90;97254.84;5047475;28;20270;-73
2023/11/20 03:59:47;;;;;;;9.80;2.53;;;;;;;14.28;54.45;97261.28;5041704;28;20292;-69
2023/11/20 04:02:12;;;;;;;12.27;2.10;;;;;;;14.25;54.70;97259.78;5052632;28;20747;-69
2023/11/20 04:04:38;;;;;;;8.07;1.93;;;;;;;14.25;54.41;97254.53;5044359;28;20663;-69
2023/11/20 04:07:04;;;;;;;8.03;1.57;;;;;;;14.32;54.64;97243.28;5048275;28;20387;-70
2023/11/20 04:09:29;;;;;;;10.77;2.30;;;;;;;14.28;54.38;97238.38;5048135;28;20206;-72
2023/11/20 04:11:55;;;;;;;7.03;1.87;;;;;;;14.35;54.09;97246.41;5048484;28;20940;-71
2023/11/20 04:14:20;;;;;;;9.97;1.80;;;;;;;14.38;54.34;97253.13;5037022;28;20278;-71
2023/11/20 04:16:46;;;;;;;9.23;1.80;;;;;;;14.36;54.17;97247.22;5049779;28;20194;-71
2023/11/20 04:19:13;;;;;;;9.47;1.90;;;;;;;14.36;54.48;97244.59;5041326;28;20199;-70
2023/11/20 04:21:39;;;;;;;12.43;2.43;;;;;;;14.37;54.24;97246.22;5030409;28;20198;-69
2023/11/20 04:24:05;;;;;;;6.50;1.73;;;;;;;14.37;54.19;97246.22;5032970;28;20960;-69
2023/11/20 04:26:30;;;;;;;9.40;1.90;;;;;;;14.35;54.36;97242.94;5046297;28;20285;-70
2023/11/20 04:28:56;;;;;;;12.83;2.90;;;;;;;14.36;54.11;97249.88;5043291;28;20213;-69
2023/11/20 04:31:22;;;;;;;8.03;2.00;;;;;;;14.31;54.01;97241.66;5051889;28;20290;-71
2023/11/20 04:33:47;;;;;;;12.70;2.27;;;;;;;14.29;53.82;97240.00;5049022;28;20273;-68
2023/11/20 04:36:13;;;;;;;7.70;1.73;;;;;;;14.34;53.63;97230.75;5048577;28;20540;-70
2023/11/20 04:38:38;;;;;;;8.13;1.77;;;;;;;14.26;53.82;97232.44;5051457;28;20199;-70
2023/11/20 04:41:05;;;;;;;10.00;2.33;;;;;;;14.26;53.57;97235.06;5047369;28;20269;-70
2023/11/20 04:43:31;;;;;;;9.40;2.07;;;;;;;14.27;53.69;97228.81;5050742;28;20211;-69
2023/11/20 04:45:56;;;;;;;8.37;1.90;;;;;;;14.24;53.45;97238.91;5040434;28;20449;-68
2023/11/20 04:48:22;;;;;;;10.27;2.30;;;;;;;14.21;53.28;97234.81;5043365;28;20191;-68
2023/11/20 04:50:47;;;;;;;9.70;2.27;;;;;;;14.22;53.10;97228.53;5047787;28;20292;-70
2023/11/20 04:53:13;;;;;;;13.50;2.23;;;;;;;14.12;52.83;97228.75;5049561;28;20262;-71
2023/11/20 04:55:38;;;;;;;12.07;1.80;;;;;;;14.12;52.58;97231.38;5049584;28;20187;-69
2023/11/20 04:58:03;;;;;;;11.47;2.10;;;;;;;14.11;52.78;97237.66;5041342;28;20190;-71
2023/11/20 05:00:29;;;;;;;8.27;1.67;;;;;;;14.16;52.20;97220.50;5056484;28;20215;-70
2023/11/20 05:02:55;;;;;;;18.87;2.30;;;;;;;14.09;52.20;97215.91;5048903;28;20210;-71
2023/11/20 05:05:20;;;;;;;11.77;2.00;;;;;;;14.11;52.22;97221.03;5053993;28;20197;-70
2023/11/20 05:07:46;;;;;;;9.60;2.17;;;;;;;14.19;52.02;97210.44;5053359;28;20191;-70
2023/11/20 05:10:11;;;;;;;19.23;2.50;;;;;;;14.15;51.64;97209.13;5047626;28;20248;-69
2023/11/20 05:12:37;;;;;;;13.20;1.87;;;;;;;14.18;51.64;97207.94;5047680;28;20191;-69
2023/11/20 05:15:03;;;;;;;6.73;1.67;;;;;;;14.18;51.59;97203.50;5051405;28;20253;-71
2023/11/20 05:17:28;;;;;;;10.37;2.17;;;;;;;14.17;51.49;97211.59;5053506;28;20190;-69
2023/11/20 05:19:55;;;;;;;4.60;1.50;;;;;;;14.21;51.47;97208.44;5055295;28;20488;-69
2023/11/20 05:22:21;;;;;;;10.03;1.93;;;;;;;14.21;51.40;97200.53;5050120;28;20809;-70
2023/11/20 05:24:47;;;;;;;11.20;2.10;;;;;;;14.20;51.25;97198.06;5047202;28;20437;-68
2023/11/20 05:27:12;;;;;;;9.93;2.17;;;;;;;14.12;50.73;97202.41;5042033;28;20180;-69
2023/11/20 05:29:38;;;;;;;5.53;1.57;;;;;;;14.16;50.97;97197.59;5050909;28;20211;-71
2023/11/20 05:32:05;;;;;;;11.07;2.37;;;;;;;14.17;50.96;97191.31;5047814;28;20190;-69
2023/11/20 05:34:30;;;;;;;6.17;1.77;;;;;;;14.18;50.72;97195.59;5044662;28;20430;-70
2023/11/20 05:36:56;;;;;;;8.60;1.70;;;;;;;14.21;50.77;97204.97;5055696;28;20479;-69
2023/11/20 05:39:22;;;;;;;8.70;1.60;;;;;;;14.20;50.80;97198.88;5044208;28;20318;-70
2023/11/20 05:41:47;;;;;;;13.87;2.20;;;;;;;14.20;50.62;97201.53;5047758;28;20269;-68
2023/11/20 05:44:15;;;;;;;13.17;2.30;;;;;;;14.22;50.60;97218.00;5044476;28;20532;-69
2023/11/20 05:46:41;;;;;;;12.93;2.97;;;;;;;14.16;50.49;97217.88;5050243;28;20187;-69
2023/11/20 05:49:07;;;;;;;6.60;1.87;;;;;;;14.22;50.33;97212.72;5051661;28;20440;-71
2023/11/20 05:51:32;;;;;;;6.37;2.00;;;;;;;14.26;50.22;97218.47;5049213;28;20785;-69
2023/11/20 05:53:58;;;;;;;8.10;1.80;;;;;;;14.24;50.33;97217.81;5050143;28;20437;-70
2023/11/20 05:56:29;;;;;;;8.10;1.90;;;;;;;14.15;50.32;97219.66;5060990;28;20684;-70
2023/11/20 05:58:54;;;;;;;10.10;1.90;;;;;;;14.23;50.30;97214.38;5046921;28;20195;-69
2023/11/20 06:01:20;;;;;;;9.77;2.07;;;;;;;14.26;50.20;97218.47;5048113;28;20561;-70
2023/11/20 06:03:45;;;;;;;12.13;2.30;;;;;;;14.22;50.24;97220.63;5052024;28;20205;-70
2023/11/20 06:06:18;;;;;;;6.07;1.80;;;;;;;14.25;50.18;97216.81;5050527;28;20232;-70
2023/11/20 06:08:43;;;;;;;6.43;2.00;;;;;;;14.32;50.14;97224.84;5047402;28;20669;-69
2023/11/20 06:11:19;;;;;;;6.67;2.20;;;;;;;14.29;49.88;97215.47;5049980;28;20472;-70
2023/11/20 06:13:45;;;;;;;6.70;1.60;;;;;;;14.31;49.76;97213.47;5046419;28;20174;-71
2023/11/20 06:16:14;;;;;;;6.23;1.80;;;;;;;14.24;50.09;97215.16;5045890;28;20490;-69
2023/11/20 06:18:39;;;;;;;6.60;1.63;;;;;;;14.17;49.60;97225.59;5050504;28;20182;-70
2023/11/20 06:21:05;;;;;;;14.40;1.93;;;;;;;14.17;49.45;97230.88;5046282;28;21045;-70
2023/11/20 06:23:30;;;;;;;9.50;2.03;;;;;;;14.17;49.63;97244.03;5035094;28;20207;-70
2023/11/20 06:25:56;;;;;;;7.57;1.70;;;;;;;14.16;49.48;97233.69;5048069;28;20206;-70
2023/11/20 06:28:21;;;;;;;12.30;2.10;;;;;;;14.11;49.56;97235.00;5050575;28;20382;-69
2023/11/20 06:30:47;;;;;;;13.77;2.27;;;;;;;14.18;49.57;97236.94;5060942;28;20348;-71
2023/11/20 06:33:12;;;;;;;6.87;1.57;;;;;;;14.23;49.47;97238.09;5053222;28;20190;-70
2023/11/20 06:35:37;;;;;;;7.33;1.70;;;;;;;14.29;49.52;97236.56;5047776;28;20725;-70
2023/11/20 06:38:03;;;;;;;6.30;1.83;;;;;;;14.26;49.35;97245.63;5050583;28;20677;-69
2023/11/20 06:40:28;;;;;;;6.10;2.03;;;;;;;14.24;49.51;97258.16;5041984;28;20502;-71
2023/11/20 06:42:54;;;;;;;8.73;2.03;;;;;;;14.22;49.58;97265.44;5048654;28;20222;-70
2023/11/20 06:45:20;;;;;;;9.10;2.00;;;;;;;14.27;49.55;97260.44;5050413;28;20297;-72
2023/11/20 06:47:46;;;;;;;10.90;1.63;;;;;;;14.28;49.51;97266.56;5036845;28;20670;-70
2023/11/20 06:50:12;;;;;;;7.23;1.70;;;;;;;14.25;49.44;97257.16;5043020;28;20464;-71
2023/11/20 06:52:38;;;;;;;10.33;1.87;;;;;;;14.33;49.46;97258.94;5046304;28;20183;-70
2023/11/20 06:55:05;;;;;;;9.00;2.00;;;;;;;14.32;49.44;97245.94;5043692;28;20854;-70
2023/11/20 06:57:31;;;;;;;10.03;2.37;;;;;;;14.32;49.04;97248.56;5051331;28;20428;-71
2023/11/20 06:59:56;;;;;;;7.40;1.87;;;;;;;14.33;49.20;97258.13;5048817;28;20460;-72
2023/11/20 07:02:23;;;;;;;9.70;1.60;;;;;;;14.36;49.20;97257.78;5048593;28;20214;-70
2023/11/20 07:04:49;;;;;;;3.63;1.33;;;;;;;14.35;49.12;97253.50;5053531;28;20199;-71
2023/11/20 07:07:16;;;;;;;10.43;2.50;;;;;;;14.39;49.08;97249.50;5043183;28;20539;-71
2023/11/20 07:09:43;;;;;;;10.10;2.00;;;;;;;14.38;48.89;97247.84;5047453;28;20764;-70
2023/11/20 07:12:09;;;;;;;6.17;2.00;;;;;;;14.39;49.10;97246.84;5046484;28;20441;-71
2023/11/20 07:14:35;;;;;;;9.73;2.37;;;;;;;14.42;49.21;97250.00;5038934;28;20426;-71
2023/11/20 07:17:00;;;;;;;8.47;2.00;;;;;;;14.46;49.06;97255.72;5052969;28;20187;-69
2023/11/20 07:19:26;;;;;;;9.77;1.60;;;;;;;14.46;49.06;97255.72;5052950;28;20269;-70
2023/11/20 07:21:51;;;;;;;6.60;1.70;;;;;;;14.48;49.00;97247.63;5049374;28;20194;-70
2023/11/20 07:24:17;;;;;;;14.33;2.33;;;;;;;14.44;48.64;97253.25;5048412;28;20653;-69
2023/11/20 07:26:42;;;;;;;9.57;2.07;;;;;;;14.49;48.88;97251.91;5054501;28;20209;-68
2023/11/20 07:29:08;;;;;;;6.67;1.47;;;;;;;14.45;48.78;97251.44;5045918;28;20213;-69
2023/11/20 07:31:35;;;;;;;10.73;1.90;;;;;;;14.49;48.82;97247.44;5050397;28;20297;-70
2023/11/20 07:34:01;;;;;;;8.30;2.37;;;;;;;14.49;48.72;97255.34;5046656;28;20682;-70
2023/11/20 07:36:27;;;;;;;6.40;1.77;;;;;;;14.51;48.66;97266.53;5044970;28;20452;-70
2023/11/20 07:38:52;;;;;;;6.70;2.03;;;;;;;14.54;48.77;97268.03;5051035;28;20250;-70
2023/11/20 07:41:18;;;;;;;8.37;1.60;;;;;;;14.55;48.65;97262.56;5056086;28;21038;-70
2023/11/20 07:43:44;;;;;;;7.93;1.70;;;;;;;14.57;48.58;97255.31;5055152;28;20233;-72
2023/11/20 07:46:09;;;;;;;6.87;1.83;;;;;;;14.67;48.60;97256.88;5063553;28;20273;-70
2023/11/20 07:48:35;;;;;;;7.13;1.60;;;;;;;14.71;48.45;97258.19;5053775;28;21621;-70
2023/11/20 07:51:01;;;;;;;10.80;2.23;;;;;;;14.74;48.40;97257.84;5049248;28;20245;-70
2023/11/20 07:53:27;;;;;;;9.57;2.10;;;;;;;14.58;48.44;97259.59;5053959;28;20421;-70
2023/11/20 07:55:52;;;;;;;7.50;1.93;;;;;;;14.59;48.57;97257.75;5049274;28;20440;-69
2023/11/20 07:58:18;;;;;;;13.03;2.10;;;;;;;14.66;48.50;97258.72;5051479;28;20637;-71
2023/11/20 08:00:43;;;;;;;8.07;1.90;;;;;;;14.59;48.83;97265.66;5055940;28;20218;-70
2023/11/20 08:03:14;;;;;;;11.30;2.03;;;;;;;14.67;48.84;97262.16;5049815;28;20226;-70
2023/11/20 08:05:41;;;;;;;12.23;2.23;;;;;;;14.61;49.21;97266.31;5050436;28;20249;-69
2023/11/20 08:08:06;;;;;;;10.40;2.23;;;;;;;14.64;49.36;97262.50;5048100;28;20465;-69
2023/11/20 08:10:32;;;;;;;14.87;2.40;;;;;;;14.74;49.21;97268.41;5047223;28;20449;-69
2023/11/20 08:12:57;;;;;;;16.40;2.70;;;;;;;14.83;49.30;97274.41;5049107;28;20194;-68
2023/11/20 08:15:23;;;;;;;8.03;2.33;;;;;;;14.78;49.50;97261.75;5044597;28;20207;-68
2023/11/20 08:17:49;;;;;;;9.00;1.90;;;;;;;14.84;49.39;97266.34;5048737;28;20195;-69
2023/11/20 08:20:16;;;;;;;7.43;2.03;;;;;;;14.86;49.65;97264.34;5050660;28;20348;-69
2023/11/20 08:22:42;;;;;;;9.10;1.80;;;;;;;14.81;49.75;97252.66;5058943;28;20461;-69
2023/11/20 08:25:07;;;;;;;7.80;2.00;;;;;;;14.88;49.75;97257.06;5049941;28;20493;-70
2023/11/20 08:27:33;;;;;;;7.13;1.83;;;;;;;14.86;50.28;97256.44;5057119;28;20194;-70
2023/11/20 08:29:59;;;;;;;10.70;2.40;;;;;;;14.73;50.80;97261.50;5056858;28;20592;-69
2023/11/20 08:32:25;;;;;;;7.30;2.00;;;;;;;14.88;50.71;97258.88;5056596;28;20203;-70
2023/11/20 08:34:50;;;;;;;8.83;1.87;;;;;;;14.85;51.36;97260.06;5050044;28;20596;-69
2023/11/20 08:37:16;;;;;;;11.93;2.33;;;;;;;14.86;51.33;97263.50;5048179;28;20541;-69
2023/11/20 08:39:43;;;;;;;6.70;1.73;;;;;;;14.90;51.44;97262.97;5047157;28;20306;-69
2023/11/20 08:42:08;;;;;;;8.77;2.57;;;;;;;14.96;51.40;97265.91;5040445;28;20291;-69
2023/11/20 08:44:34;;;;;;;12.07;3.10;;;;;;;14.95;51.40;97270.34;5049157;28;20461;-70
2023/11/20 08:46:59;;;;;;;8.93;2.30;;;;;;;14.95;51.44;97254.53;5054584;28;20215;-68
2023/11/20 08:49:26;;;;;;;5.80;1.73;;;;;;;14.91;51.83;97261.19;5048689;28;20245;-69
2023/11/20 08:51:52;;;;;;;7.73;1.93;;;;;;;14.93;51.89;97255.69;5043125;28;20592;-68
2023/11/20 08:54:18;;;;;;;9.00;2.27;;;;;;;14.95;51.87;97259.78;5046194;28;20437;-68
2023/11/20 08:56:45;;;;;;;10.50;2.10;;;;;;;14.90;51.95;97268.25;5043489;28;20480;-68
2023/11/20 08:59:10;;;;;;;6.97;2.10;;;;;;;14.87;52.16;97257.25;5058853;28;20187;-69
2023/11/20 09:01:36;;;;;;;13.90;3.17;;;;;;;14.88;52.06;97257.06;5051468;28;20793;-69
2023/11/20 09:04:05;;;;;;;8.03;2.00;;;;;;;14.71;52.61;97253.75;5045679;28;20260;-68
2023/11/20 09:06:31;;;;;;;13.70;2.00;;;;;;;14.81;52.29;97250.03;5052692;28;20246;-68
2023/11/20 09:08:57;;;;;;;8.10;1.70;;;;;;;14.84;52.25;97237.31;5053609;28;20418;-68
2023/11/20 09:11:23;;;;;;;12.40;2.33;;;;;;;14.85;52.26;97246.03;5047490;28;20214;-68
2023/11/20 09:13:50;;;;;;;9.77;2.10;;;;;;;14.62;52.76;97246.88;5055050;28;20194;-69
2023/11/20 09:16:15;;;;;;;8.30;1.90;;;;;;;14.72;52.84;97247.47;5049962;28;20183;-69
2023/11/20 09:18:41;;;;;;;15.50;2.70;;;;;;;14.79;52.55;97239.66;5048543;28;20824;-70
2023/11/20 09:21:06;;;;;;;5.50;1.70;;;;;;;14.87;52.55;97233.50;5053049;28;20252;-69
2023/11/20 09:23:32;;;;;;;12.63;2.37;;;;;;;14.88;52.50;97235.94;5049656;28;20211;-69
2023/11/20 09:25:58;;;;;;;6.93;1.90;;;;;;;14.92;52.46;97238.22;5049109;28;20556;-70
2023/11/20 09:28:23;;;;;;;7.20;1.87;;;;;;;14.94;52.37;97236.25;5055961;28;20428;-69
2023/11/20 09:30:49;;;;;;;7.90;1.63;;;;;;;14.92;52.31;97232.94;5045522;28;20568;-69
2023/11/20 09:33:15;;;;;;;8.40;2.20;;;;;;;14.95;52.00;97235.25;5049551;28;20265;-69
2023/11/20 09:35:40;;;;;;;7.57;1.93;;;;;;;15.04;51.98;97236.78;5060013;28;20233;-69
2023/11/20 09:38:06;;;;;;;9.90;1.93;;;;;;;15.40;52.35;97233.44;5047917;28;20198;-69
2023/11/20 09:40:31;;;;;;;10.37;2.27;;;;;;;15.78;50.65;97238.59;5056018;28;20207;-70
2023/11/20 09:42:58;;;;;;;5.73;1.80;;;;;;;16.50;49.34;97224.78;5049397;28;20214;-69
2023/11/20 09:45:27;;;;;;;7.77;1.80;;;;;;;17.04;47.87;97224.19;5046602;28;20180;-69
2023/11/20 09:47:57;;;;;;;5.63;1.57;;;;;;;17.48;45.48;97216.91;5049499;28;20441;-69
2023/11/20 09:50:27;;;;;;;6.13;1.97;;;;;;;17.65;45.26;97227.19;5049513;28;20447;-69
2023/11/20 09:52:53;;;;;;;9.70;1.60;;;;;;;18.10;44.23;97216.19;5057083;28;20520;-70
2023/11/20 09:55:19;;;;;;;12.30;2.17;;;;;;;18.70;43.53;97218.91;5057768;28;20491;-70
2023/11/20 09:57:44;;;;;;;5.00;2.03;;;;;;;18.69;42.11;97222.59;5046027;28;20517;-70
2023/11/20 10:00:15;;;;;;;9.30;2.20;;;;;;;18.34;42.03;97225.38;5053561;28;20319;-69
2023/11/20 10:02:44;;;;;;;8.87;2.30;;;;;;;18.07;42.69;97219.22;5050752;28;20242;-69
2023/11/20 10:05:10;;;;;;;7.37;2.30;;;;;;;17.92;43.14;97228.13;5041968;28;20438;-70
2023/11/20 10:07:38;;;;;;;5.17;1.50;;;;;;;17.69;43.30;97228.44;5056953;28;20529;-70
2023/11/20 10:10:05;;;;;;;7.00;2.30;;;;;;;17.52;43.47;97227.94;5046192;28;20211;-68
2023/11/20 10:12:31;;;;;;;10.63;2.10;;;;;;;17.39;43.70;97233.19;5049450;28;20426;-69
2023/11/20 10:14:56;;;;;;;9.83;1.73;;;;;;;17.02;44.16;97231.50;5052549;28;20512;-69
2023/11/20 10:17:23;;;;;;;7.57;1.83;;;;;;;16.83;44.99;97227.66;5045937;28;20846;-68
2023/11/20 10:19:48;;;;;;;6.37;2.10;;;;;;;16.84;45.05;97215.28;5051002;28;20229;-68
2023/11/20 10:22:15;;;;;;;11.73;2.00;;;;;;;16.78;45.10;97216.03;5046029;28;20465;-68
2023/11/20 10:24:44;;;;;;;6.03;1.83;;;;;;;16.93;45.33;97214.13;5045231;28;20206;-69
2023/11/20 10:27:11;;;;;;;10.43;2.10;;;;;;;16.91;45.01;97210.84;5042893;28;20466;-68
2023/11/20 10:29:38;;;;;;;11.53;2.50;;;;;;;16.79;45.04;97204.44;5038023;28;20466;-69
2023/11/20 10:32:04;;;;;;;7.73;1.80;;;;;;;16.69;45.05;97192.34;5037737;28;20432;-69
2023/11/20 10:34:30;;;;;;;10.43;2.07;;;;;;;16.85;44.60;97196.53;5044038;28;20793;-70
2023/11/20 10:37:04;;;;;;;6.57;1.90;;;;;;;16.78;44.42;97211.56;5047257;28;20453;-69
2023/11/20 10:39:33;;;;;;;5.57;1.97;;;;;;;16.57;45.02;97168.25;5039214;28;20437;-69
2023/11/20 10:41:58;;;;;;;12.20;1.90;;;;;;;16.58;44.70;97174.38;5048302;28;20514;-68
2023/11/20 10:44:25;;;;;;;6.77;1.47;;;;;;;16.66;44.39;97182.16;5048112;28;20539;-68
2023/11/20 10:46:52;;;;;;;8.30;2.20;;;;;;;16.37;45.63;97173.41;5043303;28;20187;-68
2023/11/20 10:49:22;;;;;;;7.80;2.00;;;;;;;16.87;46.31;97159.31;5041359;28;20438;-68
2023/11/20 10:51:57;;;;;;;4.97;1.80;;;;;;;17.15;46.20;97161.97;5040582;28;20444;-69
2023/11/20 10:54:38;;;;;;;10.17;2.40;;;;;;;17.57;45.27;97146.03;5056998;28;20421;-68
2023/11/20 10:57:04;;;;;;;9.00;1.73;;;;;;;17.83;45.02;97154.28;5049652;28;20444;-68
2023/11/20 10:59:34;;;;;;;5.95;1.60;;;;;;;17.90;45.39;97158.56;5051325;28;20425;-68
2023/11/20 11:01:59;;;;;;;5.37;1.63;;;;;;;18.30;45.47;97141.94;5041971;28;20211;-68
2023/11/20 11:04:26;;;;;;;6.87;1.90;;;;;;;18.81;43.16;97135.16;5053087;28;20527;-70
2023/11/20 11:06:53;;;;;;;4.63;1.50;;;;;;;19.45;42.27;97124.00;5050155;28;20464;-71
2023/11/20 11:09:19;;;;;;;4.03;1.50;;;;;;;19.91;39.51;97122.97;5048150;28;20429;-67
2023/11/20 11:11:47;;;;;;;4.13;1.50;;;;;;;19.62;38.26;97124.31;5057313;28;20417;-70
2023/11/20 11:14:13;;;;;;;2.33;1.00;;;;;;;19.31;38.55;97129.38;5053969;28;20888;-69
2023/11/20 11:16:43;;;;;;;4.27;1.57;;;;;;;18.94;39.50;97133.53;5056279;28;20425;-70
2023/11/20 11:19:12;;;;;;;4.07;1.57;;;;;;;18.50;40.92;97141.13;5055527;28;20179;-70
2023/11/20 11:22:06;;;;;;;7.47;1.73;;;;;;;17.74;43.66;97157.09;5049994;28;20421;-68
2023/11/20 11:24:32;;;;;;;10.33;2.80;;;;;;;17.38;45.37;97146.78;5050459;28;20487;-70